createdAt,value
2023-04-19T00:01:12.509Z,4.40
2023-04-19T00:04:16.254Z,3.00
2023-04-19T00:07:20.486Z,3.10
2023-04-19T00:10:23.655Z,3.20
2023-04-19T00:13:28.135Z,3.30
2023-04-19T00:16:31.323Z,6.80
2023-04-19T00:19:34.546Z,3.33
2023-04-19T00:22:37.680Z,3.37
2023-04-19T00:25:40.959Z,4.10
2023-04-19T00:28:45.864Z,4.73
2023-04-19T00:31:49.040Z,3.60
2023-04-19T00:34:52.336Z,3.43
2023-04-19T00:37:55.426Z,4.20
2023-04-19T00:40:59.112Z,2.83
2023-04-19T00:44:03.599Z,3.33
2023-04-19T00:47:06.877Z,3.20
2023-04-19T00:50:10.947Z,4.80
2023-04-19T00:53:14.565Z,3.60
2023-04-19T00:56:18.888Z,3.50
2023-04-19T00:59:23.821Z,3.30
2023-04-19T01:02:28.634Z,2.93
2023-04-19T01:05:32.156Z,3.37
2023-04-19T01:08:35.284Z,3.17
2023-04-19T01:11:38.391Z,3.27
2023-04-19T01:14:42.887Z,3.40
2023-04-19T01:17:45.959Z,2.97
2023-04-19T01:20:51.977Z,3.63
2023-04-19T01:23:56.436Z,3.23
2023-04-19T01:26:59.582Z,3.20
2023-04-19T01:30:02.776Z,3.40
2023-04-19T01:33:05.913Z,2.90
2023-04-19T01:36:09.627Z,3.47
2023-04-19T01:39:14.105Z,4.87
2023-04-19T01:42:17.184Z,2.70
2023-04-19T01:45:20.750Z,4.07
2023-04-19T01:48:23.954Z,4.63
2023-04-19T01:51:27.469Z,2.60
2023-04-19T01:54:31.836Z,2.90
2023-04-19T01:57:34.977Z,4.07
2023-04-19T02:00:38.203Z,3.10
2023-04-19T02:03:41.920Z,3.43
2023-04-19T02:06:45.277Z,2.80
2023-04-19T02:09:49.722Z,3.67
2023-04-19T02:12:52.810Z,2.97
2023-04-19T02:15:55.932Z,3.80
2023-04-19T02:18:59.081Z,3.53
2023-04-19T02:22:02.196Z,3.80
2023-04-19T02:25:08.298Z,5.40
2023-04-19T02:28:11.489Z,3.10
2023-04-19T02:31:14.576Z,3.60
2023-04-19T02:34:18.697Z,4.40
2023-04-19T02:37:21.757Z,3.37
2023-04-19T02:40:26.342Z,4.53
2023-04-19T02:43:29.433Z,3.53
2023-04-19T02:46:32.641Z,4.83
2023-04-19T02:49:36.954Z,5.53
2023-04-19T02:52:40.805Z,6.60
2023-04-19T02:55:45.332Z,4.43
2023-04-19T02:58:48.568Z,7.27
2023-04-19T03:01:51.765Z,5.47
2023-04-19T03:04:55.520Z,6.30
2023-04-19T03:07:58.659Z,5.50
2023-04-19T03:11:03.136Z,5.83
2023-04-19T03:14:06.251Z,6.00
2023-04-19T03:17:09.515Z,4.60
2023-04-19T03:20:13.297Z,4.40
2023-04-19T03:23:16.494Z,4.67
2023-04-19T03:26:20.980Z,5.00
2023-04-19T03:29:24.298Z,5.73
2023-04-19T03:32:27.473Z,4.47
2023-04-19T03:35:32.295Z,4.70
2023-04-19T03:38:35.394Z,5.80
2023-04-19T03:41:41.822Z,5.27
2023-04-19T03:44:45.002Z,5.23
2023-04-19T03:47:48.249Z,5.67
2023-04-19T03:50:51.397Z,4.77
2023-04-19T03:53:54.487Z,5.43
2023-04-19T03:56:58.913Z,4.43
2023-04-19T04:00:02.146Z,6.80
2023-04-19T04:03:05.442Z,5.30
2023-04-19T04:06:08.962Z,5.53
2023-04-19T04:09:12.156Z,5.03
2023-04-19T04:12:16.740Z,5.43
2023-04-19T04:15:19.907Z,4.93
2023-04-19T04:18:23.487Z,4.90
2023-04-19T04:21:27.289Z,4.90
2023-04-19T04:24:32.948Z,6.10
2023-04-19T04:27:38.081Z,5.07
2023-04-19T04:30:41.892Z,5.60
2023-04-19T04:33:45.891Z,4.83
2023-04-19T04:36:50.657Z,6.27
2023-04-19T04:39:53.810Z,6.13
2023-04-19T04:43:00.963Z,6.17
2023-04-19T04:46:04.269Z,5.83
2023-04-19T04:49:07.668Z,5.13
2023-04-19T04:52:10.778Z,6.27
2023-04-19T04:55:13.914Z,6.37
2023-04-19T04:58:20.365Z,9.17
2023-04-19T05:01:24.230Z,15.50
2023-04-19T05:04:27.571Z,38.93
2023-04-19T05:07:30.697Z,22.73
2023-04-19T05:10:33.786Z,9.93
2023-04-19T05:13:38.370Z,7.10
2023-04-19T05:16:41.559Z,9.57
2023-04-19T05:19:45.145Z,5.10
2023-04-19T05:22:48.303Z,4.97
2023-04-19T05:25:51.370Z,4.57
2023-04-19T05:28:56.279Z,7.00
2023-04-19T05:31:59.448Z,4.60
2023-04-19T05:35:02.622Z,6.27
2023-04-19T05:38:06.071Z,5.60
2023-04-19T05:41:09.205Z,6.57
2023-04-19T05:44:13.942Z,4.77
2023-04-19T05:47:17.647Z,5.23
2023-04-19T05:50:21.200Z,9.97
2023-04-19T05:53:24.340Z,5.30
2023-04-19T05:56:27.536Z,5.13
2023-04-19T05:59:31.992Z,8.10
2023-04-19T06:02:35.165Z,5.33
2023-04-19T06:05:40.495Z,6.80
2023-04-19T06:08:43.730Z,5.17
2023-04-19T06:11:50.629Z,5.40
2023-04-19T06:14:55.851Z,6.90
2023-04-19T06:17:59.970Z,4.80
2023-04-19T06:21:03.128Z,6.00
2023-04-19T06:24:07.730Z,5.40
2023-04-19T06:27:10.845Z,4.83
2023-04-19T06:30:15.675Z,5.93
2023-04-19T06:33:18.685Z,5.07
2023-04-19T06:36:21.893Z,5.23
2023-04-19T06:39:25.064Z,5.30
2023-04-19T06:42:28.141Z,5.30
2023-04-19T06:45:33.052Z,6.07
2023-04-19T06:48:36.533Z,4.80
2023-04-19T06:51:40.836Z,5.93
2023-04-19T06:54:43.905Z,6.63
2023-04-19T06:57:46.942Z,5.53
2023-04-19T07:00:51.956Z,6.67
2023-04-19T07:03:57.373Z,5.47
2023-04-19T07:07:01.222Z,5.70
2023-04-19T07:10:04.339Z,5.00
2023-04-19T07:13:07.438Z,4.90
2023-04-19T07:16:11.960Z,7.17
2023-04-19T07:19:15.103Z,5.27
2023-04-19T07:22:18.322Z,5.20
2023-04-19T07:25:21.892Z,5.73
2023-04-19T07:28:24.993Z,5.20
2023-04-19T07:31:29.671Z,5.80
2023-04-19T07:34:32.777Z,5.30
2023-04-19T07:37:35.997Z,5.63
2023-04-19T07:40:39.094Z,5.83
2023-04-19T07:43:42.378Z,5.40
2023-04-19T07:46:46.969Z,5.20
2023-04-19T07:49:53.509Z,5.30
2023-04-19T07:52:56.824Z,8.23
2023-04-19T07:56:00.148Z,7.22
2023-04-19T07:59:08.360Z,5.28
2023-04-19T08:02:14.039Z,5.00
2023-04-19T08:05:18.575Z,4.53
2023-04-19T08:08:21.790Z,5.20
2023-04-19T08:11:25.453Z,4.55
2023-04-19T08:14:40.451Z,6.05
2023-04-19T08:17:48.476Z,5.38
2023-04-19T08:20:51.679Z,5.50
2023-04-19T08:23:54.822Z,5.05
2023-04-19T08:27:00.049Z,5.47
2023-04-19T08:30:03.570Z,4.80
2023-04-19T08:33:08.463Z,4.75
2023-04-19T08:36:17.074Z,5.03
2023-04-19T08:39:32.302Z,6.32
2023-04-19T08:42:37.342Z,5.75
2023-04-19T08:45:41.464Z,4.85
2023-04-19T08:48:47.580Z,5.60
2023-04-19T08:51:51.371Z,5.20
2023-04-19T08:54:55.977Z,4.40
2023-04-19T08:57:59.699Z,6.05
2023-04-19T09:01:05.392Z,7.07
2023-04-19T09:04:34.896Z,5.72
2023-04-19T09:07:32.890Z,5.00
2023-04-19T09:10:36.240Z,5.07
2023-04-19T09:13:40.646Z,6.13
2023-04-19T09:16:44.504Z,5.57
2023-04-19T09:19:50.144Z,6.03
2023-04-19T09:23:05.471Z,7.50
2023-04-19T09:26:22.978Z,6.10
2023-04-19T09:29:27.611Z,7.30
2023-04-19T09:32:46.129Z,5.07
2023-04-19T09:35:50.666Z,6.20
2023-04-19T09:38:53.807Z,5.70
2023-04-19T09:41:56.925Z,5.87
2023-04-19T09:48:09.306Z,6.07
2023-04-19T09:51:14.822Z,4.83
2023-04-19T09:54:20.269Z,5.40
2023-04-19T09:57:23.429Z,6.23
2023-04-19T10:00:27.158Z,4.93
2023-04-19T10:03:33.669Z,4.73
2023-04-19T10:06:58.262Z,6.30
2023-04-19T10:10:15.921Z,5.93
2023-04-19T10:13:26.709Z,6.10
2023-04-19T10:16:32.766Z,5.40
2023-04-19T10:19:38.498Z,7.43
2023-04-19T10:22:43.098Z,5.50
2023-04-19T10:25:48.095Z,8.17
2023-04-19T10:28:51.254Z,6.00
2023-04-19T10:31:57.358Z,6.40
2023-04-19T10:35:05.342Z,5.77
2023-04-19T10:38:12.588Z,5.70
2023-04-19T10:41:17.913Z,5.93
2023-04-19T10:44:24.922Z,5.47
2023-04-19T10:47:42.697Z,7.27
2023-04-19T10:51:01.572Z,7.30
2023-04-19T10:54:06.837Z,7.60
2023-04-19T10:57:11.572Z,7.90
2023-04-19T11:00:21.877Z,8.73
2023-04-19T11:03:54.973Z,8.47
2023-04-19T11:07:03.795Z,7.90
2023-04-19T11:10:09.497Z,7.07
2023-04-19T11:13:12.903Z,5.37
2023-04-19T11:16:18.321Z,6.40
2023-04-19T11:19:22.508Z,4.90
2023-04-19T11:22:33.664Z,7.13
2023-04-19T11:25:38.164Z,8.27
2023-04-19T11:28:41.283Z,6.93
2023-04-19T11:31:46.360Z,7.00
2023-04-19T11:34:49.574Z,7.80
2023-04-19T11:37:53.524Z,8.17
2023-04-19T11:41:01.883Z,7.90
2023-04-19T11:44:05.011Z,9.37
2023-04-19T11:47:08.446Z,8.90
2023-04-19T11:50:34.346Z,8.83
2023-04-19T11:53:37.440Z,9.33
2023-04-19T11:57:00.086Z,11.30
2023-04-19T12:00:07.872Z,9.43
2023-04-19T12:03:11.427Z,11.13
2023-04-19T12:06:16.160Z,13.03
2023-04-19T12:09:24.119Z,13.60
2023-04-19T12:12:34.793Z,13.17
2023-04-19T12:15:49.311Z,12.63
2023-04-19T12:18:52.812Z,12.50
2023-04-19T12:22:09.776Z,10.70
2023-04-19T12:25:12.924Z,12.20
2023-04-19T12:28:18.036Z,12.27
2023-04-19T12:31:21.936Z,13.83
2023-04-19T12:34:25.338Z,12.27
2023-04-19T12:37:28.446Z,12.67
2023-04-19T12:40:31.901Z,10.53
2023-04-19T12:43:36.455Z,12.83
2023-04-19T12:46:39.882Z,11.20
2023-04-19T12:49:43.138Z,12.47
2023-04-19T12:52:47.066Z,11.83
2023-04-19T12:55:50.247Z,14.57
2023-04-19T12:58:54.774Z,14.27
2023-04-19T13:01:58.447Z,11.80
2023-04-19T13:05:02.025Z,11.03
2023-04-19T13:08:05.948Z,11.00
2023-04-19T13:11:09.126Z,9.80
2023-04-19T13:14:13.569Z,12.17
2023-04-19T13:17:16.690Z,12.53
2023-04-19T13:20:20.892Z,12.17
2023-04-19T13:23:24.036Z,10.53
2023-04-19T13:26:27.310Z,12.03
2023-04-19T13:29:31.795Z,12.73
2023-04-19T13:32:35.383Z,11.60
2023-04-19T13:35:38.558Z,12.80
2023-04-19T13:38:41.677Z,10.90
2023-04-19T13:41:44.748Z,10.40
2023-04-19T13:44:50.506Z,11.37
2023-04-19T13:47:53.781Z,10.80
2023-04-19T13:50:57.729Z,11.87
2023-04-19T13:54:00.846Z,15.63
2023-04-19T13:57:04.016Z,14.00
2023-04-19T14:00:10.045Z,11.47
2023-04-19T14:03:13.380Z,12.60
2023-04-19T14:06:17.061Z,14.27
2023-04-19T14:09:20.166Z,14.40
2023-04-19T14:12:23.327Z,11.60
2023-04-19T14:15:27.848Z,12.77
2023-04-19T14:18:30.936Z,11.27
2023-04-19T14:21:34.084Z,12.30
2023-04-19T14:24:37.301Z,11.00
2023-04-19T14:27:40.463Z,11.40
2023-04-19T14:30:44.993Z,11.03
2023-04-19T14:33:48.138Z,10.70
2023-04-19T14:36:51.697Z,11.70
2023-04-19T14:39:54.996Z,12.23
2023-04-19T14:42:58.153Z,12.10
2023-04-19T14:46:02.795Z,11.27
2023-04-19T14:49:06.164Z,12.33
2023-04-19T14:52:09.636Z,13.70
2023-04-19T14:55:12.968Z,13.73
2023-04-19T14:58:16.068Z,13.40
2023-04-19T15:01:23.276Z,13.70
2023-04-19T15:04:26.597Z,11.90
2023-04-19T15:07:29.790Z,6.40
2023-04-19T15:10:32.892Z,5.03
2023-04-19T15:13:36.534Z,4.80
2023-04-19T15:16:41.117Z,5.60
2023-04-19T15:19:44.501Z,5.77
2023-04-19T15:22:47.636Z,6.67
2023-04-19T15:25:50.870Z,5.43
2023-04-19T15:28:55.864Z,7.37
2023-04-19T15:32:00.418Z,6.57
2023-04-19T15:35:03.570Z,6.90
2023-04-19T15:38:06.808Z,6.20
2023-04-19T15:41:09.903Z,5.93
2023-04-19T15:44:13.055Z,6.37
2023-04-19T15:47:17.523Z,5.77
2023-04-19T15:50:20.801Z,5.67
2023-04-19T15:53:24.052Z,6.40
2023-04-19T15:56:27.206Z,5.83
2023-04-19T15:59:30.413Z,5.20
2023-04-19T16:02:37.792Z,4.93
2023-04-19T16:05:41.192Z,4.57
2023-04-19T16:08:44.316Z,6.60
2023-04-19T16:11:47.425Z,5.60
2023-04-19T16:14:50.536Z,4.30
2023-04-19T16:17:55.102Z,4.43
2023-04-19T16:20:58.232Z,4.30
2023-04-19T16:24:01.937Z,3.93
2023-04-19T16:27:05.352Z,4.60
2023-04-19T16:30:09.512Z,5.03
2023-04-19T16:33:15.427Z,3.87
2023-04-19T16:36:18.605Z,3.73
2023-04-19T16:39:22.011Z,3.90
2023-04-19T16:42:25.153Z,3.93
2023-04-19T16:45:28.532Z,3.93
2023-04-19T16:48:32.940Z,3.60
2023-04-19T16:51:36.179Z,6.43
2023-04-19T16:54:40.030Z,4.30
2023-04-19T16:57:43.409Z,4.47
2023-04-19T17:00:46.926Z,6.10
2023-04-19T17:03:51.718Z,5.77
2023-04-19T17:06:55.675Z,4.83
2023-04-19T17:10:02.188Z,5.43
2023-04-19T17:13:05.314Z,5.50
2023-04-19T17:16:09.358Z,4.63
2023-04-19T17:19:14.395Z,4.77
2023-04-19T17:22:18.062Z,5.13
2023-04-19T17:25:22.449Z,4.83
2023-04-19T17:28:25.733Z,5.37
2023-04-19T17:31:29.391Z,5.10
2023-04-19T17:34:36.661Z,5.80
2023-04-19T17:37:41.075Z,4.90
2023-04-19T17:40:45.202Z,6.60
2023-04-19T17:43:49.172Z,5.80
2023-04-19T17:46:53.489Z,6.40
2023-04-19T17:50:07.606Z,5.40
2023-04-19T17:53:11.180Z,5.73
2023-04-19T17:56:14.628Z,6.07
2023-04-19T17:59:18.520Z,5.77
2023-04-19T18:02:24.089Z,5.83
2023-04-19T18:05:29.599Z,5.83
2023-04-19T18:08:33.332Z,7.77
2023-04-19T18:11:36.829Z,7.03
2023-04-19T18:14:40.344Z,7.27
2023-04-19T18:17:44.296Z,7.10
2023-04-19T18:20:50.138Z,6.03
2023-04-19T18:23:55.030Z,7.33
2023-04-19T18:27:00.452Z,6.80
2023-04-19T18:30:03.977Z,8.10
2023-04-19T18:33:08.326Z,7.10
2023-04-19T18:36:13.384Z,6.33
2023-04-19T18:39:19.927Z,7.87
2023-04-19T18:42:24.707Z,7.40
2023-04-19T18:45:29.481Z,7.00
2023-04-19T18:48:33.784Z,7.87
2023-04-19T18:51:40.276Z,7.43
2023-04-19T18:54:44.069Z,6.60
2023-04-19T18:57:48.607Z,7.93
2023-04-19T19:00:52.868Z,8.10
2023-04-19T19:04:19.140Z,7.23
2023-04-19T19:07:34.910Z,7.93
2023-04-19T19:11:12.876Z,8.77
2023-04-19T19:14:05.007Z,6.83
2023-04-19T19:17:09.201Z,8.73
2023-04-19T19:20:17.166Z,8.50
2023-04-19T19:23:34.696Z,8.30
2023-04-19T19:26:44.306Z,8.20
2023-04-19T19:29:48.534Z,9.23
2023-04-19T19:32:52.767Z,7.03
2023-04-19T19:35:56.579Z,8.20
2023-04-19T19:39:04.034Z,8.00
2023-04-19T19:42:09.788Z,8.10
2023-04-19T19:45:16.192Z,7.70
2023-04-19T19:48:23.518Z,8.33
2023-04-19T19:51:52.980Z,9.50
2023-04-19T19:55:02.202Z,8.40
2023-04-19T19:58:25.881Z,7.80
2023-04-19T20:01:31.779Z,8.77
2023-04-19T20:04:42.044Z,10.13
2023-04-19T20:08:00.952Z,10.63
2023-04-19T20:11:09.406Z,6.93
2023-04-19T20:14:13.568Z,6.27
2023-04-19T20:17:18.306Z,5.90
2023-04-19T20:20:22.917Z,5.33
2023-04-19T20:23:27.596Z,8.60
2023-04-19T20:26:33.821Z,6.57
2023-04-19T20:29:37.865Z,6.53
2023-04-19T20:32:43.231Z,7.40
2023-04-19T20:35:47.432Z,5.20
2023-04-19T20:38:52.290Z,7.33
2023-04-19T20:41:58.143Z,8.03
2023-04-19T20:45:01.610Z,6.27
2023-04-19T20:48:07.247Z,5.30
2023-04-19T20:51:13.268Z,4.53
2023-04-19T20:54:17.263Z,4.50
2023-04-19T20:57:22.433Z,5.13
2023-04-19T21:00:25.960Z,3.77
2023-04-19T21:03:29.817Z,4.23
2023-04-19T21:06:35.818Z,4.20
2023-04-19T21:09:38.968Z,2.10
2023-04-19T21:12:43.404Z,2.43
2023-04-19T21:15:46.610Z,2.93
2023-04-19T21:18:49.740Z,2.23
2023-04-19T21:21:52.992Z,2.07
2023-04-19T21:24:56.067Z,2.20
2023-04-19T21:28:00.570Z,2.20
2023-04-19T21:31:03.999Z,1.63
2023-04-19T21:34:07.105Z,2.30
2023-04-19T21:37:10.417Z,1.87
2023-04-19T21:40:14.012Z,1.73
2023-04-19T21:43:18.970Z,1.70
2023-04-19T21:46:22.172Z,1.77
2023-04-19T21:49:25.332Z,2.13
2023-04-19T21:52:28.428Z,2.47
2023-04-19T21:55:32.380Z,1.50
2023-04-19T21:58:37.079Z,3.33
2023-04-19T22:01:40.219Z,3.20
2023-04-19T22:04:44.731Z,1.40
2023-04-19T22:07:47.868Z,1.60
2023-04-19T22:10:51.044Z,1.03
2023-04-19T22:13:55.682Z,1.10
2023-04-19T22:17:02.679Z,1.40
2023-04-19T22:20:09.133Z,1.37
2023-04-19T22:23:12.553Z,1.10
2023-04-19T22:26:15.807Z,1.60
2023-04-19T22:29:21.038Z,1.30
2023-04-19T22:32:24.326Z,2.83
2023-04-19T22:35:27.450Z,1.10
2023-04-19T22:38:30.589Z,1.60
2023-04-19T22:41:34.369Z,1.17
2023-04-19T22:44:38.818Z,1.30
2023-04-19T22:47:41.978Z,1.13
2023-04-19T22:50:45.710Z,1.30
2023-04-19T22:53:48.915Z,1.20
2023-04-19T22:56:52.141Z,1.67
2023-04-19T22:59:56.589Z,2.73
2023-04-19T23:02:59.975Z,1.30
2023-04-19T23:06:04.190Z,1.63
2023-04-19T23:09:10.778Z,2.50
2023-04-19T23:12:15.805Z,1.83
2023-04-19T23:15:20.301Z,1.23
2023-04-19T23:18:23.688Z,1.63
2023-04-19T23:21:26.883Z,1.30
2023-04-19T23:24:29.978Z,3.53
2023-04-19T23:27:33.355Z,1.37
2023-04-19T23:30:37.795Z,2.03
2023-04-19T23:33:40.906Z,1.20
2023-04-19T23:36:44.031Z,1.40
2023-04-19T23:39:47.106Z,1.87
2023-04-19T23:42:50.844Z,2.10
2023-04-19T23:45:55.382Z,1.70
2023-04-19T23:48:58.545Z,1.03
2023-04-19T23:52:01.703Z,1.73
2023-04-19T23:55:05.293Z,2.17
2023-04-19T23:58:08.437Z,1.53
